createdAt,value
2018-08-13T00:01:34.418Z,3.70
2018-08-13T00:04:03.213Z,5.50
2018-08-13T00:06:32.030Z,4.50
2018-08-13T00:09:00.744Z,4.80
2018-08-13T00:11:29.465Z,3.13
2018-08-13T00:13:58.116Z,4.07
2018-08-13T00:16:26.813Z,4.03
2018-08-13T00:18:55.488Z,4.60
2018-08-13T00:21:24.163Z,5.57
2018-08-13T00:23:52.940Z,5.50
2018-08-13T00:26:21.613Z,4.63
2018-08-13T00:28:50.289Z,5.17
2018-08-13T00:31:19.004Z,5.40
2018-08-13T00:33:47.820Z,5.13
2018-08-13T00:36:16.466Z,4.97
2018-08-13T00:38:45.150Z,6.37
2018-08-13T00:41:13.966Z,6.53
2018-08-13T00:43:42.642Z,4.93
2018-08-13T00:46:11.336Z,4.23
2018-08-13T00:48:40.115Z,7.53
2018-08-13T00:51:08.848Z,4.27
2018-08-13T00:53:37.523Z,7.47
2018-08-13T00:56:06.299Z,5.17
2018-08-13T00:58:34.995Z,5.67
2018-08-13T01:01:03.760Z,5.23
2018-08-13T01:03:32.686Z,6.20
2018-08-13T01:06:01.381Z,5.93
2018-08-13T01:08:29.997Z,4.00
2018-08-13T01:10:58.752Z,3.93
2018-08-13T01:13:27.627Z,4.33
2018-08-13T01:15:56.423Z,6.03
2018-08-13T01:18:25.199Z,4.87
2018-08-13T01:20:53.918Z,4.97
2018-08-13T01:23:22.596Z,5.10
2018-08-13T01:25:51.325Z,7.80
2018-08-13T01:28:20.000Z,7.10
2018-08-13T01:30:48.724Z,4.37
2018-08-13T01:33:17.492Z,4.40
2018-08-13T01:35:46.208Z,4.67
2018-08-13T01:38:15.003Z,4.60
2018-08-13T01:40:43.677Z,5.03
2018-08-13T01:43:12.353Z,4.20
2018-08-13T01:45:41.069Z,4.33
2018-08-13T01:48:09.804Z,7.13
2018-08-13T01:50:38.526Z,5.23
2018-08-13T01:53:10.277Z,4.70
2018-08-13T01:55:39.209Z,3.93
2018-08-13T01:58:07.966Z,3.87
2018-08-13T02:00:36.742Z,3.10
2018-08-13T02:03:06.516Z,4.40
2018-08-13T02:05:35.231Z,5.43
2018-08-13T02:08:03.988Z,3.57
2018-08-13T02:10:32.682Z,3.90
2018-08-13T02:13:01.441Z,3.83
2018-08-13T02:15:30.135Z,4.90
2018-08-13T02:17:58.909Z,3.27
2018-08-13T02:20:27.744Z,3.70
2018-08-13T02:22:56.521Z,3.70
2018-08-13T02:25:25.235Z,3.60
2018-08-13T02:27:53.870Z,3.83
2018-08-13T02:30:22.606Z,5.93
2018-08-13T02:32:51.322Z,4.97
2018-08-13T02:35:20.117Z,3.33
2018-08-13T02:37:48.876Z,4.87
2018-08-13T02:40:17.568Z,3.20
2018-08-13T02:42:46.184Z,4.80
2018-08-13T02:45:14.899Z,5.13
2018-08-13T02:47:43.580Z,6.37
2018-08-13T02:50:13.590Z,4.00
2018-08-13T02:52:42.325Z,5.83
2018-08-13T02:55:11.754Z,3.87
2018-08-13T02:57:40.516Z,2.83
2018-08-13T03:00:10.734Z,5.57
2018-08-13T03:02:46.127Z,4.43
2018-08-13T03:05:14.843Z,4.03
2018-08-13T03:07:43.662Z,2.57
2018-08-13T03:10:13.353Z,3.23
2018-08-13T03:12:42.689Z,3.70
2018-08-13T03:15:13.804Z,3.83
2018-08-13T03:17:42.500Z,3.57
2018-08-13T03:20:11.256Z,3.13
2018-08-13T03:22:40.110Z,2.97
2018-08-13T03:25:10.246Z,5.40
2018-08-13T03:27:39.001Z,4.17
2018-08-13T03:30:10.538Z,6.00
2018-08-13T03:32:39.591Z,4.33
2018-08-13T03:35:08.547Z,4.17
2018-08-13T03:37:37.303Z,2.77
2018-08-13T03:40:08.597Z,5.47
2018-08-13T03:42:37.374Z,4.40
2018-08-13T03:45:07.512Z,4.10
2018-08-13T03:47:36.365Z,4.07
2018-08-13T03:50:06.640Z,3.73
2018-08-13T03:52:35.435Z,8.27
2018-08-13T03:55:04.930Z,4.50
2018-08-13T03:57:33.627Z,6.27
2018-08-13T04:00:02.426Z,3.73
2018-08-13T04:02:31.257Z,6.13
2018-08-13T04:05:00.075Z,3.57
2018-08-13T04:25:05.096Z,4.83
2018-08-13T04:30:27.505Z,6.87
2018-08-13T05:34:52.725Z,6.30
2018-08-13T05:37:31.305Z,10.87
2018-08-13T05:42:54.115Z,12.50
2018-08-13T05:45:29.778Z,9.47
2018-08-13T05:48:12.546Z,6.77
2018-08-13T05:50:41.733Z,16.50
2018-08-13T05:53:13.589Z,12.17
2018-08-13T05:55:42.423Z,10.47
2018-08-13T05:58:11.343Z,11.37
2018-08-13T06:00:39.999Z,14.53
2018-08-13T06:03:08.792Z,10.53
2018-08-13T06:05:37.644Z,9.23
2018-08-13T06:08:06.919Z,9.30
2018-08-13T06:10:35.635Z,9.40
2018-08-13T06:13:04.318Z,8.40
2018-08-13T06:15:33.080Z,12.17
2018-08-13T06:18:02.015Z,11.47
2018-08-13T06:20:30.774Z,9.70
2018-08-13T06:22:59.990Z,9.73
2018-08-13T06:25:29.065Z,12.00
2018-08-13T06:27:58.320Z,12.50
2018-08-13T06:30:27.086Z,11.33
2018-08-13T06:32:56.370Z,11.50
2018-08-13T06:35:25.006Z,16.23
2018-08-13T06:37:55.433Z,17.47
2018-08-13T06:40:24.115Z,13.27
2018-08-13T06:42:55.088Z,13.83
2018-08-13T06:45:23.847Z,7.73
2018-08-13T06:47:59.649Z,14.63
2018-08-13T06:50:29.236Z,9.00
2018-08-13T06:52:59.272Z,6.83
2018-08-13T06:55:28.307Z,7.97
2018-08-13T06:57:57.094Z,8.60
2018-08-13T07:00:27.162Z,9.60
2018-08-13T07:02:58.602Z,9.90
2018-08-13T07:05:27.408Z,5.83
2018-08-13T07:07:58.363Z,6.40
2018-08-13T07:10:33.538Z,8.40
2018-08-13T07:13:03.393Z,8.20
2018-08-13T07:15:46.678Z,8.43
2018-08-13T07:21:05.239Z,9.50
2018-08-13T07:23:34.742Z,10.53
2018-08-13T07:26:03.869Z,11.93
2018-08-13T07:28:36.023Z,6.83
2018-08-13T07:31:04.898Z,7.30
2018-08-13T07:33:34.175Z,9.10
2018-08-13T07:36:04.212Z,13.00
2018-08-13T07:38:32.926Z,8.57
2018-08-13T07:41:01.640Z,10.73
2018-08-13T07:43:30.935Z,8.67
2018-08-13T07:46:01.168Z,17.57
2018-08-13T07:48:31.201Z,9.07
2018-08-13T07:51:00.361Z,10.67
2018-08-13T07:53:29.726Z,7.80
2018-08-13T07:55:58.810Z,10.60
2018-08-13T07:58:29.246Z,5.77
2018-08-13T08:00:58.021Z,9.30
2018-08-13T08:03:27.431Z,6.50
2018-08-13T08:05:55.975Z,6.57
2018-08-13T08:08:24.868Z,7.40
2018-08-13T08:11:01.984Z,6.80
2018-08-13T08:13:31.176Z,7.43
2018-08-13T08:16:00.353Z,7.70
2018-08-13T08:18:29.107Z,9.40
2018-08-13T08:20:58.062Z,9.00
2018-08-13T08:23:26.812Z,7.10
2018-08-13T08:25:55.611Z,6.80
2018-08-13T08:28:24.265Z,9.00
2018-08-13T08:30:52.923Z,7.17
2018-08-13T08:33:22.932Z,6.50
2018-08-13T08:35:51.714Z,8.20
2018-08-13T08:38:20.330Z,8.60
2018-08-13T08:40:49.442Z,8.40
2018-08-13T08:43:18.239Z,6.27
2018-08-13T08:45:47.668Z,5.77
2018-08-13T08:48:16.551Z,8.13
2018-08-13T08:50:45.585Z,10.90
2018-08-13T08:53:14.328Z,10.60
2018-08-13T08:55:43.115Z,5.93
2018-08-13T08:58:11.970Z,4.90
2018-08-13T09:00:40.895Z,11.93
2018-08-13T09:03:09.782Z,8.20
2018-08-13T09:05:39.096Z,5.70
2018-08-13T09:08:07.832Z,8.37
2018-08-13T09:10:37.246Z,12.60
2018-08-13T09:13:07.343Z,8.67
2018-08-13T09:15:36.172Z,7.23
2018-08-13T09:18:16.492Z,6.03
2018-08-13T09:20:56.326Z,7.93
2018-08-13T09:23:36.103Z,8.03
2018-08-13T09:26:15.937Z,8.07
2018-08-13T09:28:55.711Z,5.10
2018-08-13T09:31:36.647Z,6.67
2018-08-13T09:35:20.606Z,7.53
2018-08-13T09:37:49.254Z,8.43
2018-08-13T09:40:17.972Z,7.63
2018-08-13T09:42:46.884Z,6.80
2018-08-13T09:45:15.880Z,6.77
2018-08-13T09:47:45.131Z,6.30
2018-08-13T09:50:17.790Z,8.53
2018-08-13T09:52:47.386Z,8.77
2018-08-13T09:55:17.020Z,7.20
2018-08-13T09:57:46.592Z,7.20
2018-08-13T10:00:22.564Z,4.70
2018-08-13T10:02:51.506Z,7.83
2018-08-13T10:05:20.262Z,5.17
2018-08-13T10:07:49.501Z,4.73
2018-08-13T10:10:18.285Z,7.83
2018-08-13T10:12:47.691Z,4.80
2018-08-13T10:15:16.442Z,5.67
2018-08-13T10:17:45.656Z,3.40
2018-08-13T10:20:17.266Z,4.80
2018-08-13T10:22:46.509Z,4.40
2018-08-13T10:25:15.188Z,5.90
2018-08-13T10:27:43.904Z,4.40
2018-08-13T10:30:15.496Z,4.17
2018-08-13T10:32:44.250Z,3.67
2018-08-13T10:35:12.940Z,3.97
2018-08-13T10:37:42.721Z,4.07
2018-08-13T10:40:14.334Z,3.30
2018-08-13T10:42:43.148Z,5.87
2018-08-13T10:45:12.648Z,4.20
2018-08-13T10:47:41.323Z,3.57
2018-08-13T10:50:12.276Z,4.30
2018-08-13T10:52:41.510Z,4.53
2018-08-13T10:55:12.049Z,5.07
2018-08-13T10:57:41.201Z,5.53
2018-08-13T11:00:15.406Z,3.73
2018-08-13T11:02:45.681Z,3.93
2018-08-13T11:05:15.290Z,5.30
2018-08-13T11:07:44.106Z,3.03
2018-08-13T11:10:13.774Z,4.80
2018-08-13T11:12:42.839Z,5.80
2018-08-13T11:15:19.417Z,3.80
2018-08-13T11:17:48.364Z,3.70
2018-08-13T11:20:17.383Z,6.27
2018-08-13T11:22:46.618Z,5.20
2018-08-13T11:25:16.326Z,3.07
2018-08-13T11:27:45.160Z,3.67
2018-08-13T11:30:16.123Z,3.57
2018-08-13T11:32:44.779Z,3.50
2018-08-13T11:35:14.557Z,4.43
2018-08-13T11:37:44.517Z,5.07
2018-08-13T11:40:15.846Z,3.67
2018-08-13T11:42:44.649Z,3.50
2018-08-13T11:45:13.691Z,4.30
2018-08-13T11:47:42.573Z,4.30
2018-08-13T11:50:19.277Z,5.83
2018-08-13T11:52:49.483Z,6.83
2018-08-13T11:55:20.258Z,6.00
2018-08-13T11:57:49.876Z,5.30
2018-08-13T12:00:20.826Z,6.85
2018-08-13T12:02:49.731Z,8.43
2018-08-13T12:05:19.216Z,18.93
2018-08-13T12:07:49.694Z,14.33
2018-08-13T12:10:23.931Z,9.07
2018-08-13T12:12:52.441Z,16.63
2018-08-13T12:15:21.328Z,6.57
2018-08-13T12:17:50.076Z,8.20
2018-08-13T12:20:21.258Z,7.23
2018-08-13T12:22:51.427Z,5.60
2018-08-13T12:25:25.023Z,7.50
2018-08-13T12:27:53.931Z,6.73
2018-08-13T12:30:22.735Z,6.03
2018-08-13T12:32:54.510Z,5.90
2018-08-13T12:35:23.783Z,4.43
2018-08-13T12:37:53.661Z,6.90
2018-08-13T12:40:22.493Z,6.40
2018-08-13T12:42:55.775Z,7.60
2018-08-13T12:45:24.705Z,7.47
2018-08-13T12:47:53.608Z,4.23
2018-08-13T12:50:23.112Z,5.40
2018-08-13T12:52:56.151Z,5.60
2018-08-13T12:55:25.150Z,5.43
2018-08-13T12:57:54.344Z,6.60
2018-08-13T13:00:25.500Z,7.23
2018-08-13T13:02:54.092Z,5.00
2018-08-13T13:05:22.687Z,3.47
2018-08-13T13:07:51.354Z,3.40
2018-08-13T13:10:19.918Z,3.50
2018-08-13T13:12:48.632Z,6.73
2018-08-13T13:15:18.980Z,4.20
2018-08-13T13:17:47.727Z,3.80
2018-08-13T13:20:18.799Z,3.70
2018-08-13T13:22:47.840Z,3.67
2018-08-13T13:25:18.570Z,4.03
2018-08-13T13:27:48.217Z,5.03
2018-08-13T13:30:18.120Z,4.20
2018-08-13T13:32:48.075Z,5.17
2018-08-13T13:35:18.433Z,5.13
2018-08-13T13:37:47.584Z,3.83
2018-08-13T13:40:17.240Z,3.00
2018-08-13T13:42:47.672Z,5.37
2018-08-13T13:45:17.359Z,5.13
2018-08-13T13:47:46.220Z,3.20
2018-08-13T13:50:16.363Z,3.23
2018-08-13T13:52:45.283Z,2.70
2018-08-13T13:55:14.693Z,4.57
2018-08-13T13:57:43.267Z,12.63
2018-08-13T14:00:15.444Z,6.40
2018-08-13T14:02:44.320Z,7.03
2018-08-13T14:05:13.189Z,6.80
2018-08-13T14:07:41.892Z,6.13
2018-08-13T14:10:13.907Z,5.33
2018-08-13T14:12:43.057Z,10.97
2018-08-13T14:15:13.619Z,8.80
2018-08-13T14:17:42.951Z,10.43
2018-08-13T14:20:12.206Z,8.77
2018-08-13T14:22:43.301Z,7.30
2018-08-13T14:25:13.791Z,8.97
2018-08-13T14:27:43.312Z,5.80
2018-08-13T14:30:16.596Z,6.90
2018-08-13T14:32:47.742Z,6.03
2018-08-13T14:35:17.237Z,4.73
2018-08-13T14:37:45.973Z,8.07
2018-08-13T14:40:14.883Z,6.13
2018-08-13T14:42:44.125Z,7.70
2018-08-13T14:45:14.528Z,4.43
2018-08-13T14:47:44.961Z,5.93
2018-08-13T14:50:14.864Z,9.10
2018-08-13T14:52:45.165Z,5.37
2018-08-13T14:55:16.120Z,9.13
2018-08-13T14:57:44.872Z,7.37
2018-08-13T15:00:23.491Z,11.67
2018-08-13T15:02:53.169Z,7.80
2018-08-13T15:05:21.801Z,7.23
2018-08-13T15:07:50.596Z,7.23
2018-08-13T15:10:21.034Z,7.23
2018-08-13T15:12:49.994Z,6.80
2018-08-13T15:15:19.022Z,10.63
2018-08-13T15:17:48.661Z,8.47
2018-08-13T15:20:21.814Z,7.37
2018-08-13T15:22:51.030Z,13.97
2018-08-13T15:25:22.163Z,6.17
2018-08-13T15:27:51.125Z,7.67
2018-08-13T15:30:20.775Z,7.50
2018-08-13T15:32:50.920Z,6.00
2018-08-13T15:35:20.157Z,5.97
2018-08-13T15:37:49.400Z,5.47
2018-08-13T15:40:18.536Z,7.77
2018-08-13T15:42:47.234Z,7.57
2018-08-13T15:45:19.125Z,5.93
2018-08-13T15:47:48.878Z,4.77
2018-08-13T15:50:18.977Z,4.70
2018-08-13T15:52:48.151Z,4.20
2018-08-13T15:55:17.431Z,4.30
2018-08-13T15:57:46.583Z,4.30
2018-08-13T16:00:20.058Z,6.53
2018-08-13T16:02:49.026Z,5.53
2018-08-13T16:05:17.995Z,5.77
2018-08-13T16:07:47.006Z,5.53
2018-08-13T16:10:16.518Z,6.57
2018-08-13T16:12:45.853Z,5.07
2018-08-13T16:15:14.872Z,8.50
2018-08-13T16:17:43.685Z,4.90
2018-08-13T16:20:17.310Z,5.83
2018-08-13T16:22:46.815Z,6.60
2018-08-13T16:25:17.058Z,5.10
2018-08-13T16:27:47.047Z,6.47
2018-08-13T16:30:20.521Z,5.17
2018-08-13T16:32:49.557Z,5.23
2018-08-13T16:35:18.992Z,5.27
2018-08-13T16:37:48.268Z,8.47
2018-08-13T16:40:17.642Z,7.83
2018-08-13T16:42:46.399Z,3.83
2018-08-13T16:45:16.096Z,3.30
2018-08-13T16:47:45.029Z,2.47
2018-08-13T16:50:16.254Z,3.33
2018-08-13T16:52:45.180Z,2.87
2018-08-13T16:55:14.115Z,2.17
2018-08-13T16:57:43.990Z,2.77
2018-08-13T17:00:15.165Z,4.37
2018-08-13T17:02:44.199Z,4.70
2018-08-13T17:05:14.475Z,3.93
2018-08-13T17:07:43.850Z,5.40
2018-08-13T17:10:18.779Z,4.30
2018-08-13T17:12:48.148Z,3.73
2018-08-13T17:15:16.957Z,4.20
2018-08-13T17:17:47.353Z,3.83
2018-08-13T17:20:18.588Z,4.00
2018-08-13T17:22:47.443Z,5.20
2018-08-13T17:25:17.277Z,4.60
2018-08-13T17:27:46.082Z,3.93
2018-08-13T17:30:17.576Z,3.67
2018-08-13T17:32:48.564Z,4.87
2018-08-13T17:35:18.898Z,4.37
2018-08-13T17:37:48.043Z,3.87
2018-08-13T17:43:03.456Z,3.30
2018-08-13T17:45:32.200Z,5.30
2018-08-13T17:48:00.956Z,6.53
2018-08-13T17:50:29.850Z,6.03
2018-08-13T17:52:59.385Z,3.63
2018-08-13T17:55:28.366Z,3.20
2018-08-13T17:57:57.499Z,3.20
2018-08-13T18:00:28.043Z,3.43
2018-08-13T18:02:56.616Z,4.17
2018-08-13T18:05:26.602Z,3.40
2018-08-13T18:07:57.421Z,3.30
2018-08-13T18:10:30.013Z,2.67
2018-08-13T18:13:00.328Z,3.23
2018-08-13T18:15:30.163Z,4.90
2018-08-13T18:17:59.034Z,4.10
2018-08-13T18:20:33.076Z,4.17
2018-08-13T18:23:02.209Z,2.70
2018-08-13T18:25:30.943Z,2.67
2018-08-13T18:28:01.279Z,3.83
2018-08-13T18:30:30.414Z,3.30
2018-08-13T18:32:59.230Z,3.10
2018-08-13T18:35:32.986Z,3.13
2018-08-13T18:38:01.877Z,4.33
2018-08-13T18:40:38.055Z,2.63
2018-08-13T18:43:07.539Z,3.23
2018-08-13T18:45:37.152Z,2.70
2018-08-13T18:50:55.856Z,3.83
2018-08-13T18:53:28.479Z,4.33
2018-08-13T18:56:03.516Z,3.17
2018-08-13T18:58:33.554Z,2.53
2018-08-13T19:09:43.830Z,2.50
2018-08-13T19:12:28.147Z,3.00
2018-08-13T19:15:03.171Z,2.50
2018-08-13T19:17:31.885Z,2.60
2018-08-13T19:20:00.622Z,2.50
2018-08-13T19:22:29.435Z,2.37
2018-08-13T19:24:58.212Z,1.90
2018-08-13T19:27:26.907Z,4.77
2018-08-13T19:29:55.662Z,2.67
2018-08-13T19:32:24.397Z,4.70
2018-08-13T19:34:53.054Z,3.40
2018-08-13T19:37:21.750Z,2.00
2018-08-13T19:39:50.384Z,2.23
2018-08-13T19:42:19.099Z,4.90
2018-08-13T19:44:47.855Z,6.00
2018-08-13T19:47:16.771Z,3.80
2018-08-13T19:49:45.627Z,3.50
2018-08-13T19:52:14.162Z,6.43
2018-08-13T19:54:42.857Z,4.40
2018-08-13T19:57:11.512Z,2.90
2018-08-13T19:59:40.569Z,4.13
2018-08-13T20:02:09.244Z,3.00
2018-08-13T20:04:37.919Z,7.03
2018-08-13T20:07:06.635Z,7.03
2018-08-13T20:09:35.310Z,3.77
2018-08-13T20:12:04.027Z,3.93
2018-08-13T20:14:32.867Z,3.80
2018-08-13T20:17:01.497Z,3.77
2018-08-13T20:19:30.284Z,5.10
2018-08-13T20:21:58.931Z,5.30
2018-08-13T20:24:27.742Z,3.40
2018-08-13T20:26:56.778Z,3.30
2018-08-13T20:29:25.481Z,2.80
2018-08-13T20:31:54.269Z,3.33
2018-08-13T20:34:22.991Z,7.43
2018-08-13T20:36:51.607Z,3.00
2018-08-13T20:39:20.395Z,3.83
2018-08-13T20:41:49.136Z,4.07
2018-08-13T20:44:17.867Z,5.00
2018-08-13T20:46:46.903Z,8.87
2018-08-13T20:49:15.721Z,4.03
2018-08-13T20:51:44.494Z,6.30
2018-08-13T20:54:13.210Z,3.90
2018-08-13T20:56:42.025Z,4.50
2018-08-13T20:59:10.679Z,4.10
2018-08-13T21:01:39.456Z,3.90
2018-08-13T21:04:08.090Z,3.57
2018-08-13T21:06:36.867Z,4.40
2018-08-13T21:09:08.981Z,4.40
2018-08-13T21:11:37.737Z,4.77
2018-08-13T21:14:07.292Z,6.13
2018-08-13T21:16:36.068Z,5.13
2018-08-13T21:19:05.083Z,4.13
2018-08-13T21:21:33.819Z,4.63
2018-08-13T21:24:02.934Z,5.03
2018-08-13T21:26:31.889Z,6.40
2018-08-13T21:29:00.685Z,5.53
2018-08-13T21:31:29.421Z,5.27
2018-08-13T21:34:01.217Z,4.90
2018-08-13T21:36:29.891Z,5.43
2018-08-13T21:38:58.627Z,5.10
2018-08-13T21:41:27.362Z,9.37
2018-08-13T21:43:56.139Z,6.77
2018-08-13T21:46:24.813Z,4.73
2018-08-13T21:48:53.545Z,5.83
2018-08-13T21:51:22.267Z,4.93
2018-08-13T21:53:50.961Z,7.10
2018-08-13T21:56:19.755Z,11.13
2018-08-13T21:58:48.472Z,10.90
2018-08-13T22:01:22.727Z,6.87
2018-08-13T22:03:51.502Z,4.97
2018-08-13T22:06:20.228Z,4.77
2018-08-13T22:08:48.953Z,4.63
2018-08-13T22:11:17.674Z,5.83
2018-08-13T22:13:46.305Z,6.77
2018-08-13T22:16:15.140Z,5.10
2018-08-13T22:18:43.974Z,7.60
2018-08-13T22:21:12.790Z,5.30
2018-08-13T22:24:52.243Z,10.23
2018-08-13T22:27:21.058Z,6.03
2018-08-13T22:29:49.811Z,7.70
2018-08-13T22:32:18.577Z,9.23
2018-08-13T22:34:47.266Z,7.70
2018-08-13T22:37:16.041Z,7.80
2018-08-13T22:39:44.756Z,9.53
2018-08-13T22:42:13.514Z,8.93
2018-08-13T22:44:42.247Z,10.70
2018-08-13T22:47:10.983Z,14.60
2018-08-13T22:49:39.699Z,11.30
2018-08-13T22:52:08.422Z,9.13
2018-08-13T22:54:37.170Z,9.07
2018-08-13T22:57:05.823Z,7.13
2018-08-13T22:59:34.560Z,8.27
2018-08-13T23:02:03.316Z,7.37
2018-08-13T23:04:32.050Z,7.23
2018-08-13T23:07:00.826Z,9.43
2018-08-13T23:09:29.601Z,8.70
2018-08-13T23:11:58.257Z,8.87
2018-08-13T23:14:27.893Z,9.23
2018-08-13T23:16:56.648Z,7.53
2018-08-13T23:19:25.340Z,15.60
2018-08-13T23:21:55.758Z,9.30
2018-08-13T23:24:24.634Z,9.20
2018-08-13T23:26:53.329Z,9.03
2018-08-13T23:29:22.006Z,7.87
2018-08-13T23:31:50.760Z,13.83
2018-08-13T23:34:19.476Z,10.33
2018-08-13T23:36:48.173Z,11.90
2018-08-13T23:39:17.167Z,8.33
2018-08-13T23:41:45.903Z,10.00
2018-08-13T23:44:15.001Z,8.63
2018-08-13T23:46:43.790Z,12.27
2018-08-13T23:49:12.608Z,14.03
2018-08-13T23:51:41.364Z,10.13
2018-08-13T23:54:10.198Z,13.93
2018-08-13T23:56:38.974Z,13.37
2018-08-13T23:59:07.731Z,11.63
